Airfield :







YOU CAN JOIN US ON...

 
LOGIN :

Register | Disclaimer

   EN    FR    IT 

 









Legend :    VFR   Marginal VFR   IFR   Intensive IFR   Very Intensive IFR
Visi :
Ceiling :
>= 8 km
>= 3000ft
5 to 8 km
1000 to 3000 ft
1500m to 5 km
500 to 1000 ft
800 to 1500m
200 to 500 ft
< 800m
< 200 ft
Symbols :   Thunderstorms  Fog  Heavy snow  Heavy precipitations  Wind > 20 kt







- Airport Elevation : 461 ft
- IATA code : YYT


CYYT - St John's Int

CURRENT METAR :
  • 222000Z 17015G24KT 15SM BKN006 BKN180 M01/M02 A3015 RMK SF6AC1 PRESFR SLP220

EXPIRED METARs :
  • 221943Z 18019G25KT 15SM BKN008 M01/M03 A3017 RMK SF7 PRESFR SLP225
  • 221900Z 18020G26KT 15SM SCT012 BKN120 BKN220 01/M03 A3020 RMK SC3AC2CI2 SLP236
  • 221800Z 18012G24KT 15SM SCT025 BKN190 03/M03 A3021 RMK SC3AC3 SLP240
  • 221700Z 17013G23KT 15SM FEW020 SCT180 BKN220 03/M03 A3022 RMK SC1AC3CI2 PRESFR SLP241

TAF AMD TAF CYYT
Valid from the 22 at 20:00 until the 23 at 18:00 UTC


222005Z 2220/2318 20015G25KT P6SM SCT008 SCT200
TEMPO 2220/2222 BKN008 BKN200
FM222200 15018G28KT P6SM SCT180
FM230000 14022G32KT P6SM SCT006 BKN100
TEMPO 2300/2303 5SM -RA BR OVC006
FM230300 13028G42KT 3SM RA BR OVC003
FM230700 15020G30KT 2SM -RA -DZ BR OVC003
FM230900 19015G25KT 5SM -RA BR OVC006
PROB40 2309/2315 2SM -RA -DZ OVC003
FM231500 22012KT P6SM BKN010 BKN070 RMK NXT FCST BY 230000Z
CZQX FIR / North America



MET'MAP, your aeronautical weather chart ! - Copyright ORBIFLY December 2007 - Disclaimer

ORBIFLY MET'MAP TEAM :

Programming & Development : Alexandra Zaïnal
Concept & Development : Baudouin d'Aumeries
Co-Development & Prog : Marc-Olivier Méhu
Technical & hardware support : Manuel Goepfert

Contact : metmap@orbifly.com




SOURCES & CREDITS :

   NOAA